createdAt,value
2023-05-03T00:00:11.346Z,1004.23
2023-05-03T00:00:26.533Z,1004.23
2023-05-03T00:00:57.858Z,1004.44
2023-05-03T00:01:29.474Z,1004.44
2023-05-03T00:02:01.570Z,1004.44
2023-05-03T00:02:33.341Z,1004.44
2023-05-03T00:03:06.481Z,1004.33
2023-05-03T00:03:37.439Z,1004.33
2023-05-03T00:04:09.869Z,1004.33
2023-05-03T00:04:26.179Z,1004.33
2023-05-03T00:04:57.479Z,1004.23
2023-05-03T00:05:29.984Z,1004.23
2023-05-03T00:06:01.439Z,1004.33
2023-05-03T00:06:33.336Z,1004.33
2023-05-03T00:07:06.495Z,1004.23
2023-05-03T00:07:37.322Z,1004.23
2023-05-03T00:08:09.227Z,1004.23
2023-05-03T00:08:26.432Z,1004.23
2023-05-03T00:08:57.324Z,1004.23
2023-05-03T00:09:29.493Z,1004.23
2023-05-03T00:10:02.355Z,1004.23
2023-05-03T00:10:33.497Z,1004.23
2023-05-03T00:11:06.499Z,1004.23
2023-05-03T00:11:37.350Z,1004.23
2023-05-03T00:12:09.301Z,1004.23
2023-05-03T00:12:26.303Z,1004.23
2023-05-03T00:12:57.403Z,1004.23
2023-05-03T00:13:29.519Z,1004.23
2023-05-03T00:14:01.337Z,1004.33
2023-05-03T00:14:33.246Z,1004.33
2023-05-03T00:15:07.650Z,1004.33
2023-05-03T00:15:37.504Z,1004.33
2023-05-03T00:16:09.222Z,1004.44
2023-05-03T00:16:26.445Z,1004.44
2023-05-03T00:16:57.490Z,1004.33
2023-05-03T00:17:29.699Z,1004.33
2023-05-03T00:17:46.190Z,1004.33
2023-05-03T00:18:17.973Z,1004.33
2023-05-03T00:18:38.640Z,1004.13
2023-05-03T00:19:07.768Z,1004.13
2023-05-03T00:19:37.328Z,1004.13
2023-05-03T00:20:09.672Z,1004.13
2023-05-03T00:20:26.237Z,1004.13
2023-05-03T00:20:58.100Z,1004.13
2023-05-03T00:21:29.558Z,1004.13
2023-05-03T00:22:01.537Z,1004.23
2023-05-03T00:22:33.254Z,1004.23
2023-05-03T00:23:06.762Z,1004.13
2023-05-03T00:23:37.381Z,1004.13
2023-05-03T00:24:09.219Z,1004.23
2023-05-03T00:24:26.244Z,1004.23
2023-05-03T00:24:57.422Z,1004.03
2023-05-03T00:25:29.931Z,1004.03
2023-05-03T00:26:01.400Z,1004.03
2023-05-03T00:26:33.230Z,1004.03
2023-05-03T00:27:06.444Z,1004.13
2023-05-03T00:27:37.276Z,1004.13
2023-05-03T00:28:09.306Z,1004.23
2023-05-03T00:28:26.308Z,1004.23
2023-05-03T00:28:57.295Z,1004.13
2023-05-03T00:29:29.523Z,1004.13
2023-05-03T00:30:03.673Z,1004.13
2023-05-03T00:30:33.286Z,1004.13
2023-05-03T00:31:06.459Z,1004.23
2023-05-03T00:31:37.613Z,1004.23
2023-05-03T00:32:09.286Z,1004.23
2023-05-03T00:32:26.292Z,1004.23
2023-05-03T00:32:57.484Z,1004.33
2023-05-03T00:33:29.576Z,1004.33
2023-05-03T00:34:01.593Z,1004.03
2023-05-03T00:34:33.385Z,1004.03
2023-05-03T00:35:07.504Z,1004.13
2023-05-03T00:35:37.430Z,1004.13
2023-05-03T00:36:09.304Z,1004.23
2023-05-03T00:36:27.294Z,1004.23
2023-05-03T00:36:57.379Z,1004.23
2023-05-03T00:37:29.589Z,1004.23
2023-05-03T00:38:01.476Z,1004.23
2023-05-03T00:38:33.265Z,1004.23
2023-05-03T00:39:06.408Z,1004.13
2023-05-03T00:39:37.465Z,1004.13
2023-05-03T00:40:09.738Z,1004.23
2023-05-03T00:40:26.263Z,1004.23
2023-05-03T00:40:57.809Z,1004.13
2023-05-03T00:41:29.961Z,1004.13
2023-05-03T00:41:47.010Z,1004.13
2023-05-03T00:42:17.413Z,1004.13
2023-05-03T00:42:38.720Z,1004.33
2023-05-03T00:43:06.424Z,1004.33
2023-05-03T00:43:37.385Z,1004.33
2023-05-03T00:44:09.271Z,1004.23
2023-05-03T00:44:26.271Z,1004.23
2023-05-03T00:44:57.458Z,1004.03
2023-05-03T00:45:31.053Z,1004.03
2023-05-03T00:45:46.157Z,1003.93
2023-05-03T00:46:17.872Z,1003.93
2023-05-03T00:46:38.741Z,1004.03
2023-05-03T00:47:06.528Z,1004.03
2023-05-03T00:47:37.377Z,1004.03
2023-05-03T00:48:09.319Z,1003.93
2023-05-03T00:48:26.151Z,1003.93
2023-05-03T00:48:57.373Z,1004.03
2023-05-03T00:49:29.547Z,1004.03
2023-05-03T00:50:02.789Z,1004.13
2023-05-03T00:50:33.537Z,1004.13
2023-05-03T00:51:06.314Z,1004.03
2023-05-03T00:51:37.469Z,1004.03
2023-05-03T00:52:09.757Z,1003.93
2023-05-03T00:52:26.214Z,1003.93
2023-05-03T00:52:57.591Z,1004.03
2023-05-03T00:53:29.619Z,1004.03
2023-05-03T00:54:01.499Z,1003.93
2023-05-03T00:54:33.206Z,1003.93
2023-05-03T00:55:07.176Z,1004.03
2023-05-03T00:55:37.318Z,1004.03
2023-05-03T00:56:09.188Z,1003.93
2023-05-03T00:56:26.422Z,1003.93
2023-05-03T00:56:57.590Z,1003.83
2023-05-03T00:57:29.533Z,1003.83
2023-05-03T00:58:01.474Z,1004.03
2023-05-03T00:58:33.229Z,1004.03
2023-05-03T00:59:06.464Z,1003.83
2023-05-03T00:59:37.799Z,1003.83
2023-05-03T01:00:10.289Z,1003.72
2023-05-03T01:00:26.603Z,1003.72
2023-05-03T01:00:57.823Z,1003.93
2023-05-03T01:01:29.516Z,1003.93
2023-05-03T01:02:01.515Z,1003.93
2023-05-03T01:02:33.714Z,1003.93
2023-05-03T01:03:06.465Z,1003.83
2023-05-03T01:03:37.793Z,1003.83
2023-05-03T01:04:09.392Z,1004.03
2023-05-03T01:04:26.318Z,1004.03
2023-05-03T01:04:57.448Z,1003.93
2023-05-03T01:05:29.925Z,1003.93
2023-05-03T01:06:01.425Z,1003.93
2023-05-03T01:06:33.230Z,1003.93
2023-05-03T01:07:06.651Z,1003.93
2023-05-03T01:07:37.569Z,1003.93
2023-05-03T01:08:09.342Z,1003.72
2023-05-03T01:08:26.452Z,1003.72
2023-05-03T01:08:57.586Z,1003.93
2023-05-03T01:09:29.544Z,1003.93
2023-05-03T01:10:02.785Z,1003.83
2023-05-03T01:10:33.197Z,1003.83
2023-05-03T01:11:06.428Z,1003.93
2023-05-03T01:11:37.347Z,1003.93
2023-05-03T01:12:09.356Z,1003.93
2023-05-03T01:12:26.495Z,1003.93
2023-05-03T01:12:57.722Z,1003.83
2023-05-03T01:13:29.495Z,1003.83
2023-05-03T01:14:01.383Z,1003.83
2023-05-03T01:14:33.304Z,1003.83
2023-05-03T01:15:07.920Z,1003.83
2023-05-03T01:15:37.348Z,1003.83
2023-05-03T01:16:09.405Z,1003.93
2023-05-03T01:16:26.715Z,1003.93
2023-05-03T01:16:57.529Z,1003.93
2023-05-03T01:17:29.665Z,1003.93
2023-05-03T01:18:01.532Z,1004.03
2023-05-03T01:18:33.256Z,1004.03
2023-05-03T01:19:06.439Z,1003.83
2023-05-03T01:19:37.430Z,1003.83
2023-05-03T01:20:09.768Z,1003.83
2023-05-03T01:20:26.357Z,1003.83
2023-05-03T01:20:57.889Z,1003.93
2023-05-03T01:21:29.539Z,1003.93
2023-05-03T01:22:01.320Z,1004.03
2023-05-03T01:22:33.308Z,1004.03
2023-05-03T01:23:06.387Z,1003.93
2023-05-03T01:23:37.671Z,1003.93
2023-05-03T01:24:09.354Z,1003.93
2023-05-03T01:24:26.319Z,1003.93
2023-05-03T01:24:57.502Z,1003.83
2023-05-03T01:25:29.962Z,1003.83
2023-05-03T01:26:01.351Z,1003.93
2023-05-03T01:26:33.266Z,1003.93
2023-05-03T01:27:06.551Z,1004.03
2023-05-03T01:27:37.319Z,1004.03
2023-05-03T01:28:09.401Z,1003.72
2023-05-03T01:28:26.378Z,1003.72
2023-05-03T01:28:57.517Z,1004.03
2023-05-03T01:29:29.582Z,1004.03
2023-05-03T01:29:46.458Z,1004.03
2023-05-03T01:30:18.220Z,1004.03
2023-05-03T01:30:38.782Z,1004.03
2023-05-03T01:31:06.524Z,1004.03
2023-05-03T01:31:37.484Z,1004.03
2023-05-03T01:32:09.325Z,1004.23
2023-05-03T01:32:26.346Z,1004.23
2023-05-03T01:32:58.735Z,1004.03
2023-05-03T01:33:29.720Z,1004.03
2023-05-03T01:33:46.746Z,1003.93
2023-05-03T01:34:17.517Z,1003.93
2023-05-03T01:34:38.720Z,1003.93
2023-05-03T01:35:07.547Z,1003.93
2023-05-03T01:35:37.559Z,1003.93
2023-05-03T01:36:09.480Z,1004.13
2023-05-03T01:36:26.324Z,1004.13
2023-05-03T01:36:57.360Z,1003.93
2023-05-03T01:37:29.557Z,1003.93
2023-05-03T01:38:01.370Z,1004.03
2023-05-03T01:38:33.280Z,1004.03
2023-05-03T01:39:06.497Z,1004.13
2023-05-03T01:39:37.494Z,1004.13
2023-05-03T01:40:10.108Z,1003.93
2023-05-03T01:40:26.225Z,1003.93
2023-05-03T01:40:57.901Z,1003.93
2023-05-03T01:41:29.703Z,1003.93
2023-05-03T01:42:01.455Z,1004.13
2023-05-03T01:42:33.319Z,1004.13
2023-05-03T01:43:06.332Z,1003.83
2023-05-03T01:43:37.372Z,1003.83
2023-05-03T01:44:09.803Z,1004.03
2023-05-03T01:44:26.306Z,1004.03
2023-05-03T01:44:57.679Z,1004.03
2023-05-03T01:45:31.263Z,1004.03
2023-05-03T01:45:46.417Z,1003.93
2023-05-03T01:46:17.433Z,1003.93
2023-05-03T01:46:38.786Z,1004.03
2023-05-03T01:47:06.399Z,1004.03
2023-05-03T01:47:37.412Z,1004.03
2023-05-03T01:48:09.491Z,1004.03
2023-05-03T01:48:26.340Z,1004.03
2023-05-03T01:48:57.465Z,1004.03
2023-05-03T01:49:29.588Z,1004.03
2023-05-03T01:50:02.558Z,1004.23
2023-05-03T01:50:33.359Z,1004.23
2023-05-03T01:51:06.506Z,1003.83
2023-05-03T01:51:37.335Z,1003.83
2023-05-03T01:52:09.249Z,1003.93
2023-05-03T01:52:26.481Z,1003.93
2023-05-03T01:52:57.412Z,1004.13
2023-05-03T01:53:29.603Z,1004.13
2023-05-03T01:54:01.643Z,1004.03
2023-05-03T01:54:33.602Z,1004.03
2023-05-03T01:55:07.273Z,1003.93
2023-05-03T01:55:37.472Z,1003.93
2023-05-03T01:56:09.309Z,1004.13
2023-05-03T01:56:26.345Z,1004.13
2023-05-03T01:56:57.352Z,1003.93
2023-05-03T01:57:29.520Z,1003.93
2023-05-03T01:58:01.382Z,1004.03
2023-05-03T01:58:33.601Z,1004.03
2023-05-03T01:59:06.433Z,1003.93
2023-05-03T01:59:37.577Z,1003.93
2023-05-03T02:00:10.382Z,1003.93
2023-05-03T02:00:26.558Z,1003.93
2023-05-03T02:00:58.527Z,1004.03
2023-05-03T02:01:29.673Z,1004.03
2023-05-03T02:02:01.394Z,1004.23
2023-05-03T02:02:33.253Z,1004.23
2023-05-03T02:03:06.763Z,1004.13
2023-05-03T02:03:37.306Z,1004.13
2023-05-03T02:04:09.375Z,1003.93
2023-05-03T02:04:26.274Z,1003.93
2023-05-03T02:04:57.638Z,1003.93
2023-05-03T02:05:29.954Z,1003.93
2023-05-03T02:06:01.399Z,1004.03
2023-05-03T02:06:33.333Z,1004.03
2023-05-03T02:07:06.446Z,1004.13
2023-05-03T02:07:38.562Z,1004.13
2023-05-03T02:08:09.820Z,1004.03
2023-05-03T02:08:26.348Z,1004.03
2023-05-03T02:08:57.510Z,1004.13
2023-05-03T02:09:29.489Z,1004.13
2023-05-03T02:10:03.480Z,1004.44
2023-05-03T02:10:33.356Z,1004.44
2023-05-03T02:11:06.421Z,1004.03
2023-05-03T02:11:37.420Z,1004.03
2023-05-03T02:12:09.422Z,1004.03
2023-05-03T02:12:26.391Z,1004.03
2023-05-03T02:12:57.519Z,1004.03
2023-05-03T02:13:29.621Z,1004.03
2023-05-03T02:14:01.399Z,1004.03
2023-05-03T02:14:33.254Z,1004.03
2023-05-03T02:15:08.153Z,1004.03
2023-05-03T02:15:37.494Z,1004.03
2023-05-03T02:16:09.364Z,1004.03
2023-05-03T02:16:26.426Z,1004.03
2023-05-03T02:16:57.425Z,1004.13
2023-05-03T02:17:29.587Z,1004.13
2023-05-03T02:18:01.440Z,1004.03
2023-05-03T02:18:33.599Z,1004.03
2023-05-03T02:19:06.453Z,1004.03
2023-05-03T02:19:37.359Z,1004.03
2023-05-03T02:20:09.759Z,1004.03
2023-05-03T02:20:26.397Z,1004.03
2023-05-03T02:20:58.732Z,1003.93
2023-05-03T02:21:29.775Z,1003.93
2023-05-03T02:21:46.548Z,1003.93
2023-05-03T02:22:17.780Z,1003.93
2023-05-03T02:22:38.755Z,1003.83
2023-05-03T02:23:06.412Z,1003.83
2023-05-03T02:23:37.732Z,1003.83
2023-05-03T02:24:09.361Z,1003.83
2023-05-03T02:24:26.418Z,1003.83
2023-05-03T02:24:57.434Z,1004.03
2023-05-03T02:25:29.982Z,1004.03
2023-05-03T02:25:46.723Z,1004.23
2023-05-03T02:26:17.658Z,1004.23
2023-05-03T02:26:38.656Z,1003.93
2023-05-03T02:27:06.379Z,1003.93
2023-05-03T02:27:37.621Z,1003.93
2023-05-03T02:28:09.538Z,1004.03
2023-05-03T02:28:26.350Z,1004.03
2023-05-03T02:28:57.420Z,1004.13
2023-05-03T02:29:29.632Z,1004.13
2023-05-03T02:30:03.299Z,1004.03
2023-05-03T02:30:33.594Z,1004.03
2023-05-03T02:31:06.697Z,1004.13
2023-05-03T02:31:37.412Z,1004.13
2023-05-03T02:32:09.385Z,1003.83
2023-05-03T02:32:26.432Z,1003.83
2023-05-03T02:32:57.588Z,1004.03
2023-05-03T02:33:29.609Z,1004.03
2023-05-03T02:34:01.401Z,1004.13
2023-05-03T02:34:33.297Z,1004.13
2023-05-03T02:35:07.264Z,1003.93
2023-05-03T02:35:37.471Z,1003.93
2023-05-03T02:36:09.677Z,1004.03
2023-05-03T02:36:26.467Z,1004.03
2023-05-03T02:36:57.328Z,1004.23
2023-05-03T02:37:29.612Z,1004.23
2023-05-03T02:38:01.443Z,1004.13
2023-05-03T02:38:33.446Z,1004.13
2023-05-03T02:39:06.407Z,1004.23
2023-05-03T02:39:37.649Z,1004.23
2023-05-03T02:40:09.831Z,1004.13
2023-05-03T02:40:26.822Z,1004.13
2023-05-03T02:40:57.815Z,1004.13
2023-05-03T02:41:29.611Z,1004.13
2023-05-03T02:42:01.354Z,1003.93
2023-05-03T02:42:33.264Z,1003.93
2023-05-03T02:43:06.475Z,1004.13
2023-05-03T02:43:37.558Z,1004.13
2023-05-03T02:44:09.434Z,1003.93
2023-05-03T02:44:28.548Z,1003.93
2023-05-03T02:44:57.379Z,1004.13
2023-05-03T02:45:30.882Z,1004.13
2023-05-03T02:46:01.393Z,1003.93
2023-05-03T02:46:33.704Z,1003.93
2023-05-03T02:47:06.377Z,1004.03
2023-05-03T02:47:37.431Z,1004.03
2023-05-03T02:48:09.388Z,1004.13
2023-05-03T02:48:26.358Z,1004.13
2023-05-03T02:48:57.393Z,1004.03
2023-05-03T02:49:29.966Z,1004.03
2023-05-03T02:50:02.561Z,1004.33
2023-05-03T02:50:33.456Z,1004.33
2023-05-03T02:51:06.460Z,1004.23
2023-05-03T02:51:37.582Z,1004.23
2023-05-03T02:52:09.317Z,1004.13
2023-05-03T02:52:26.420Z,1004.13
2023-05-03T02:52:57.504Z,1004.23
2023-05-03T02:53:29.605Z,1004.23
2023-05-03T02:54:01.374Z,1004.33
2023-05-03T02:54:33.698Z,1004.33
2023-05-03T02:55:07.369Z,1004.03
2023-05-03T02:55:37.399Z,1004.03
2023-05-03T02:56:09.436Z,1004.23
2023-05-03T02:56:26.391Z,1004.23
2023-05-03T02:56:57.832Z,1004.23
2023-05-03T02:57:29.606Z,1004.23
2023-05-03T02:58:01.356Z,1004.03
2023-05-03T02:58:33.302Z,1004.03
2023-05-03T02:59:06.332Z,1004.13
2023-05-03T02:59:37.392Z,1004.13
2023-05-03T03:00:10.326Z,1004.03
2023-05-03T03:00:26.569Z,1004.03
2023-05-03T03:00:57.981Z,1004.23
2023-05-03T03:01:29.926Z,1004.23
2023-05-03T03:02:01.523Z,1004.13
2023-05-03T03:02:33.705Z,1004.13
2023-05-03T03:03:06.426Z,1004.23
2023-05-03T03:03:38.045Z,1004.23
2023-05-03T03:04:09.480Z,1004.23
2023-05-03T03:04:26.214Z,1004.23
2023-05-03T03:04:57.506Z,1004.13
2023-05-03T03:05:30.103Z,1004.13
2023-05-03T03:06:01.493Z,1004.23
2023-05-03T03:06:33.391Z,1004.23
2023-05-03T03:07:06.325Z,1004.13
2023-05-03T03:07:37.445Z,1004.13
2023-05-03T03:08:10.669Z,1004.23
2023-05-03T03:08:26.239Z,1004.23
2023-05-03T03:08:57.400Z,1004.13
2023-05-03T03:09:29.631Z,1004.13
2023-05-03T03:10:02.479Z,1004.13
2023-05-03T03:10:33.274Z,1004.13
2023-05-03T03:11:06.551Z,1004.23
2023-05-03T03:11:37.517Z,1004.23
2023-05-03T03:12:09.446Z,1004.23
2023-05-03T03:12:26.278Z,1004.23
2023-05-03T03:12:57.372Z,1004.33
2023-05-03T03:13:29.923Z,1004.33
2023-05-03T03:14:01.419Z,1004.33
2023-05-03T03:14:33.606Z,1004.33
2023-05-03T03:15:07.915Z,1004.03
2023-05-03T03:15:37.427Z,1004.03
2023-05-03T03:16:09.251Z,1004.23
2023-05-03T03:16:26.265Z,1004.23
2023-05-03T03:16:57.525Z,1004.54
2023-05-03T03:17:29.822Z,1004.54
2023-05-03T03:17:47.176Z,1004.33
2023-05-03T03:18:19.463Z,1004.33
2023-05-03T03:18:38.803Z,1004.23
2023-05-03T03:19:06.267Z,1004.23
2023-05-03T03:19:37.574Z,1004.23
2023-05-03T03:20:09.812Z,1004.44
2023-05-03T03:20:26.357Z,1004.44
2023-05-03T03:20:57.809Z,1004.44
2023-05-03T03:21:29.623Z,1004.44
2023-05-03T03:22:01.446Z,1004.44
2023-05-03T03:22:33.363Z,1004.44
2023-05-03T03:23:06.388Z,1004.44
2023-05-03T03:23:37.724Z,1004.44
2023-05-03T03:24:09.462Z,1004.44
2023-05-03T03:24:26.391Z,1004.44
2023-05-03T03:24:57.568Z,1004.33
2023-05-03T03:25:30.346Z,1004.33
2023-05-03T03:26:01.411Z,1004.44
2023-05-03T03:26:33.326Z,1004.44
2023-05-03T03:27:06.307Z,1004.13
2023-05-03T03:27:39.520Z,1004.13
2023-05-03T03:28:09.675Z,1004.33
2023-05-03T03:28:36.435Z,1004.33
2023-05-03T03:28:57.456Z,1004.33
2023-05-03T03:29:29.783Z,1004.33
2023-05-03T03:30:03.453Z,1004.33
2023-05-03T03:30:33.396Z,1004.33
2023-05-03T03:31:06.575Z,1004.44
2023-05-03T03:31:37.612Z,1004.44
2023-05-03T03:32:09.323Z,1004.44
2023-05-03T03:32:26.437Z,1004.44
2023-05-03T03:32:57.644Z,1004.33
2023-05-03T03:33:29.860Z,1004.33
2023-05-03T03:34:01.510Z,1004.23
2023-05-03T03:34:33.404Z,1004.23
2023-05-03T03:35:07.338Z,1004.64
2023-05-03T03:35:37.428Z,1004.64
2023-05-03T03:36:09.250Z,1004.54
2023-05-03T03:36:26.387Z,1004.54
2023-05-03T03:36:57.404Z,1004.44
2023-05-03T03:37:29.708Z,1004.44
2023-05-03T03:38:01.650Z,1004.54
2023-05-03T03:38:33.925Z,1004.54
2023-05-03T03:39:06.339Z,1004.54
2023-05-03T03:39:37.457Z,1004.54
2023-05-03T03:40:10.096Z,1004.23
2023-05-03T03:40:26.393Z,1004.23
2023-05-03T03:40:58.310Z,1004.54
2023-05-03T03:41:29.545Z,1004.54
2023-05-03T03:41:46.480Z,1004.54
2023-05-03T03:42:19.018Z,1004.54
2023-05-03T03:42:39.015Z,1004.33
2023-05-03T03:43:06.745Z,1004.33
2023-05-03T03:43:37.874Z,1004.33
2023-05-03T03:44:09.734Z,1004.44
2023-05-03T03:44:26.601Z,1004.44
2023-05-03T03:44:58.334Z,1004.44
2023-05-03T03:45:30.669Z,1004.44
2023-05-03T03:46:01.624Z,1004.23
2023-05-03T03:46:33.565Z,1004.23
2023-05-03T03:47:06.713Z,1004.44
2023-05-03T03:47:37.672Z,1004.44
2023-05-03T03:48:09.775Z,1004.33
2023-05-03T03:48:26.694Z,1004.33
2023-05-03T03:48:58.030Z,1004.54
2023-05-03T03:49:29.915Z,1004.54
2023-05-03T03:50:03.534Z,1004.33
2023-05-03T03:50:33.656Z,1004.33
2023-05-03T03:51:06.936Z,1004.33
2023-05-03T03:51:37.911Z,1004.33
2023-05-03T03:52:09.556Z,1004.64
2023-05-03T03:52:26.513Z,1004.64
2023-05-03T03:52:57.606Z,1004.44
2023-05-03T03:53:30.071Z,1004.44
2023-05-03T03:54:01.684Z,1004.54
2023-05-03T03:54:33.624Z,1004.54
2023-05-03T03:55:07.543Z,1004.54
2023-05-03T03:55:37.624Z,1004.54
2023-05-03T03:56:09.579Z,1004.44
2023-05-03T03:56:26.598Z,1004.44
2023-05-03T03:56:57.661Z,1004.64
2023-05-03T03:57:29.927Z,1004.64
2023-05-03T03:58:01.780Z,1004.44
2023-05-03T03:58:33.594Z,1004.44
2023-05-03T03:59:06.919Z,1004.44
2023-05-03T03:59:37.749Z,1004.44
2023-05-03T04:00:10.963Z,1004.23
2023-05-03T04:00:27.165Z,1004.23
2023-05-03T04:00:58.247Z,1004.54
2023-05-03T04:01:29.913Z,1004.54
2023-05-03T04:01:46.481Z,1004.64
2023-05-03T04:02:17.723Z,1004.64
2023-05-03T04:02:39.351Z,1004.64
2023-05-03T04:03:07.884Z,1004.64
2023-05-03T04:03:37.783Z,1004.64
2023-05-03T04:04:10.145Z,1004.33
2023-05-03T04:04:26.627Z,1004.33
2023-05-03T04:04:57.653Z,1004.54
2023-05-03T04:05:30.261Z,1004.54
2023-05-03T04:06:02.111Z,1004.44
2023-05-03T04:06:33.783Z,1004.44
2023-05-03T04:07:06.702Z,1004.64
2023-05-03T04:07:37.702Z,1004.64
2023-05-03T04:08:09.889Z,1004.74
2023-05-03T04:08:26.585Z,1004.74
2023-05-03T04:08:57.689Z,1004.54
2023-05-03T04:09:29.766Z,1004.54
2023-05-03T04:09:46.878Z,1004.54
2023-05-03T04:10:18.309Z,1004.54
2023-05-03T04:10:38.963Z,1004.64
2023-05-03T04:11:06.732Z,1004.64
2023-05-03T04:11:37.764Z,1004.64
2023-05-03T04:12:09.642Z,1004.64
2023-05-03T04:12:26.958Z,1004.64
2023-05-03T04:12:57.835Z,1004.54
2023-05-03T04:13:29.841Z,1004.54
2023-05-03T04:14:01.678Z,1004.54
2023-05-03T04:14:33.575Z,1004.54
2023-05-03T04:15:08.018Z,1004.64
2023-05-03T04:15:37.749Z,1004.64
2023-05-03T04:16:09.590Z,1004.44
2023-05-03T04:16:26.587Z,1004.44
2023-05-03T04:16:57.729Z,1004.64
2023-05-03T04:17:30.018Z,1004.64
2023-05-03T04:17:46.975Z,1004.64
2023-05-03T04:18:17.896Z,1004.64
2023-05-03T04:18:38.900Z,1004.64
2023-05-03T04:19:06.636Z,1004.64
2023-05-03T04:19:37.892Z,1004.64
2023-05-03T04:20:10.389Z,1004.44
2023-05-03T04:20:36.856Z,1004.74
2023-05-03T04:20:58.142Z,1004.74
2023-05-03T04:21:29.991Z,1004.74
2023-05-03T04:21:46.638Z,1004.54
2023-05-03T04:22:18.178Z,1004.54
2023-05-03T04:22:39.047Z,1004.74
2023-05-03T04:23:06.569Z,1004.74
2023-05-03T04:23:37.748Z,1004.74
2023-05-03T04:24:09.582Z,1004.84
2023-05-03T04:24:26.740Z,1004.84
2023-05-03T04:24:57.878Z,1004.84
2023-05-03T04:25:30.315Z,1004.84
2023-05-03T04:25:46.714Z,1004.74
2023-05-03T04:26:30.158Z,1004.74
2023-05-03T04:26:39.319Z,1004.64
2023-05-03T04:27:06.605Z,1004.64
2023-05-03T04:27:37.825Z,1004.64
2023-05-03T04:28:09.792Z,1004.84
2023-05-03T04:28:26.610Z,1004.84
2023-05-03T04:28:57.694Z,1004.64
2023-05-03T04:29:29.911Z,1004.64
2023-05-03T04:29:47.422Z,1004.84
2023-05-03T04:30:18.896Z,1004.84
2023-05-03T04:30:39.504Z,1004.84
2023-05-03T04:31:06.892Z,1004.84
2023-05-03T04:31:37.859Z,1004.84
2023-05-03T04:32:09.653Z,1004.74
2023-05-03T04:32:26.834Z,1004.74
2023-05-03T04:32:57.823Z,1004.91
2023-05-03T04:33:29.847Z,1004.91
2023-05-03T04:33:46.704Z,1004.74
2023-05-03T04:34:18.087Z,1004.74
2023-05-03T04:34:39.142Z,1004.74
2023-05-03T04:35:07.481Z,1004.74
2023-05-03T04:35:37.796Z,1004.74
2023-05-03T04:36:09.647Z,1005.01
2023-05-03T04:36:27.089Z,1005.01
2023-05-03T04:36:57.767Z,1004.84
2023-05-03T04:37:29.859Z,1004.84
2023-05-03T04:37:46.851Z,1004.84
2023-05-03T04:38:17.806Z,1004.84
2023-05-03T04:38:39.358Z,1005.11
2023-05-03T04:39:06.712Z,1005.11
2023-05-03T04:39:37.731Z,1005.11
2023-05-03T04:40:10.055Z,1005.01
2023-05-03T04:40:26.949Z,1005.01
2023-05-03T04:40:58.419Z,1005.01
2023-05-03T04:41:30.145Z,1005.01
2023-05-03T04:41:46.818Z,1005.01
2023-05-03T04:42:17.860Z,1005.01
2023-05-03T04:42:39.515Z,1004.74
2023-05-03T04:43:06.661Z,1004.74
2023-05-03T04:43:37.767Z,1004.74
2023-05-03T04:44:09.665Z,1005.01
2023-05-03T04:44:26.596Z,1005.01
2023-05-03T04:44:57.779Z,1005.01
2023-05-03T04:45:31.086Z,1005.01
2023-05-03T04:45:46.888Z,1004.74
2023-05-03T04:46:18.189Z,1004.74
2023-05-03T04:46:39.098Z,1005.01
2023-05-03T04:47:06.735Z,1005.01
2023-05-03T04:47:37.834Z,1005.01
2023-05-03T04:48:11.026Z,1004.91
2023-05-03T04:48:26.885Z,1004.91
2023-05-03T04:48:57.761Z,1005.01
2023-05-03T04:49:29.877Z,1005.01
2023-05-03T04:49:46.897Z,1005.01
2023-05-03T04:50:18.246Z,1005.01
2023-05-03T04:50:39.151Z,1004.91
2023-05-03T04:51:06.669Z,1004.91
2023-05-03T04:51:37.670Z,1004.91
2023-05-03T04:52:09.590Z,1005.01
2023-05-03T04:52:26.658Z,1005.01
2023-05-03T04:52:57.815Z,1004.91
2023-05-03T04:53:29.887Z,1004.91
2023-05-03T04:53:46.784Z,1005.21
2023-05-03T04:54:17.735Z,1005.21
2023-05-03T04:54:39.068Z,1005.21
2023-05-03T04:55:07.446Z,1005.21
2023-05-03T04:55:37.795Z,1005.21
2023-05-03T04:56:09.750Z,1005.01
2023-05-03T04:56:26.624Z,1005.01
2023-05-03T04:56:57.809Z,1005.01
2023-05-03T04:57:29.826Z,1005.01
2023-05-03T04:57:46.780Z,1005.01
2023-05-03T04:58:17.819Z,1005.01
2023-05-03T04:58:39.045Z,1005.01
2023-05-03T04:59:06.815Z,1005.01
2023-05-03T04:59:38.284Z,1005.01
2023-05-03T05:00:11.238Z,1005.11
2023-05-03T05:00:26.963Z,1005.11
2023-05-03T05:00:58.329Z,1005.21
2023-05-03T05:01:29.973Z,1005.21
2023-05-03T05:01:47.468Z,1005.11
2023-05-03T05:02:17.872Z,1005.11
2023-05-03T05:02:39.573Z,1005.21
2023-05-03T05:03:06.921Z,1005.21
2023-05-03T05:03:37.917Z,1005.21
2023-05-03T05:04:09.676Z,1005.32
2023-05-03T05:04:26.670Z,1005.32
2023-05-03T05:04:57.762Z,1005.11
2023-05-03T05:05:30.298Z,1005.11
2023-05-03T05:06:01.818Z,1004.91
2023-05-03T05:06:33.767Z,1004.91
2023-05-03T05:07:06.653Z,1005.01
2023-05-03T05:07:37.828Z,1005.01
2023-05-03T05:08:09.817Z,1005.21
2023-05-03T05:08:26.705Z,1005.21
2023-05-03T05:08:57.709Z,1005.11
2023-05-03T05:09:30.144Z,1005.11
2023-05-03T05:10:03.072Z,1005.11
2023-05-03T05:10:33.603Z,1005.11
2023-05-03T05:11:06.713Z,1005.01
2023-05-03T05:11:37.827Z,1005.01
2023-05-03T05:12:09.998Z,1005.21
2023-05-03T05:12:36.725Z,1005.42
2023-05-03T05:12:57.774Z,1005.42
2023-05-03T05:13:29.920Z,1005.42
2023-05-03T05:14:01.618Z,1005.32
2023-05-03T05:14:33.682Z,1005.32
2023-05-03T05:15:08.096Z,1005.11
2023-05-03T05:15:38.015Z,1005.11
2023-05-03T05:16:09.648Z,1005.21
2023-05-03T05:16:27.002Z,1005.21
2023-05-03T05:16:57.650Z,1005.32
2023-05-03T05:17:29.944Z,1005.32
2023-05-03T05:18:01.772Z,1005.21
2023-05-03T05:18:33.756Z,1005.21
2023-05-03T05:19:06.686Z,1005.21
2023-05-03T05:19:37.796Z,1005.21
2023-05-03T05:20:10.443Z,1005.11
2023-05-03T05:20:26.774Z,1005.11
2023-05-03T05:20:58.116Z,1005.11
2023-05-03T05:21:29.873Z,1005.11
2023-05-03T05:21:47.622Z,1005.21
2023-05-03T05:22:17.792Z,1005.21
2023-05-03T05:22:38.994Z,1005.21
2023-05-03T05:23:06.854Z,1005.21
2023-05-03T05:23:37.619Z,1005.21
2023-05-03T05:24:09.543Z,1005.21
2023-05-03T05:24:26.649Z,1005.21
2023-05-03T05:24:57.693Z,1005.11
2023-05-03T05:25:30.196Z,1005.11
2023-05-03T05:26:01.735Z,1005.21
2023-05-03T05:26:33.591Z,1005.21
2023-05-03T05:27:06.935Z,1005.32
2023-05-03T05:27:37.725Z,1005.32
2023-05-03T05:28:09.775Z,1005.11
2023-05-03T05:28:27.309Z,1005.11
2023-05-03T05:28:57.953Z,1005.32
2023-05-03T05:29:29.853Z,1005.32
2023-05-03T05:30:04.055Z,1005.32
2023-05-03T05:30:33.914Z,1005.32
2023-05-03T05:31:07.394Z,1005.11
2023-05-03T05:31:37.697Z,1005.11
2023-05-03T05:32:09.653Z,1005.42
2023-05-03T05:32:26.743Z,1005.42
2023-05-03T05:32:58.603Z,1005.42
2023-05-03T05:33:29.998Z,1005.42
2023-05-03T05:34:01.957Z,1005.32
2023-05-03T05:34:42.151Z,1005.32
2023-05-03T05:35:07.850Z,1005.32
2023-05-03T05:35:37.863Z,1005.32
2023-05-03T05:36:10.010Z,1005.32
2023-05-03T05:36:26.901Z,1005.32
2023-05-03T05:36:58.094Z,1005.32
2023-05-03T05:37:30.040Z,1005.32
2023-05-03T05:38:02.019Z,1005.42
2023-05-03T05:38:33.958Z,1005.42
2023-05-03T05:39:07.051Z,1005.21
2023-05-03T05:39:37.923Z,1005.21
2023-05-03T05:40:10.471Z,1005.21
2023-05-03T05:40:27.185Z,1005.21
2023-05-03T05:40:58.766Z,1005.21
2023-05-03T05:41:30.129Z,1005.21
2023-05-03T05:42:01.997Z,1005.32
2023-05-03T05:42:33.934Z,1005.32
2023-05-03T05:43:07.164Z,1005.42
2023-05-03T05:43:38.022Z,1005.42
2023-05-03T05:44:10.169Z,1005.42
2023-05-03T05:44:26.769Z,1005.42
2023-05-03T05:44:57.916Z,1005.42
2023-05-03T05:45:31.135Z,1005.42
2023-05-03T05:46:02.061Z,1005.11
2023-05-03T05:46:33.827Z,1005.11
2023-05-03T05:47:08.797Z,1005.32
2023-05-03T05:47:37.928Z,1005.32
2023-05-03T05:48:10.210Z,1005.52
2023-05-03T05:48:26.848Z,1005.52
2023-05-03T05:48:57.898Z,1005.42
2023-05-03T05:49:30.070Z,1005.42
2023-05-03T05:50:09.616Z,1005.52